createdAt,value
2023-02-19T00:01:42.096Z,100579.72
2023-02-19T00:06:01.752Z,100581.12
2023-02-19T00:09:04.876Z,100580.59
2023-02-19T00:12:28.291Z,100581.12
2023-02-19T00:16:24.025Z,100575.41
2023-02-19T00:20:31.011Z,100582.22
2023-02-19T00:23:56.803Z,100585.94
2023-02-19T00:27:02.907Z,100583.16
2023-02-19T00:30:27.744Z,100583.09
2023-02-19T00:33:40.372Z,100577.78
2023-02-19T00:36:58.651Z,100577.88
2023-02-19T00:40:42.062Z,100575.22
2023-02-19T00:44:01.900Z,100576.03
2023-02-19T00:47:25.060Z,100574.34
2023-02-19T00:50:38.302Z,100569.94
2023-02-19T00:54:15.689Z,100571.72
2023-02-19T00:58:20.319Z,100576.03
2023-02-19T01:01:33.202Z,100580.31
2023-02-19T01:05:02.224Z,100585.09
2023-02-19T01:08:26.269Z,100600.31
2023-02-19T01:11:38.314Z,100592.13
2023-02-19T01:15:03.613Z,100580.03
2023-02-19T01:18:59.532Z,100588.03
2023-02-19T01:22:10.689Z,100584.56
2023-02-19T01:25:17.751Z,100577.66
2023-02-19T01:29:03.477Z,100581.19
2023-02-19T01:32:11.373Z,100590.97
2023-02-19T01:35:49.108Z,100581.91
2023-02-19T01:39:32.039Z,100590.59
2023-02-19T01:42:58.841Z,100585.06
2023-02-19T01:46:39.273Z,100582.00
2023-02-19T01:50:12.566Z,100582.50
2023-02-19T01:53:57.611Z,100582.00
2023-02-19T01:57:28.931Z,100577.19
2023-02-19T02:01:07.078Z,100577.34
2023-02-19T02:04:14.880Z,100576.47
2023-02-19T02:08:01.984Z,100562.59
2023-02-19T02:12:13.700Z,100560.31
2023-02-19T02:16:33.149Z,100579.37
2023-02-19T02:20:36.149Z,100557.00
2023-02-19T02:24:51.999Z,100564.25
2023-02-19T02:28:52.541Z,100551.12
2023-02-19T02:32:31.153Z,100556.91
2023-02-19T02:36:27.269Z,100557.03
2023-02-19T02:39:48.938Z,100545.28
2023-02-19T02:43:09.078Z,100539.66
2023-02-19T02:46:35.551Z,100535.91
2023-02-19T02:50:28.448Z,100543.31
2023-02-19T02:55:04.298Z,100549.00
2023-02-19T02:58:31.605Z,100549.50
2023-02-19T03:02:28.882Z,100544.88
2023-02-19T03:06:03.350Z,100562.06
2023-02-19T03:09:44.510Z,100559.41
2023-02-19T03:13:19.823Z,100557.72
2023-02-19T03:17:30.905Z,100552.34
2023-02-19T03:20:53.947Z,100555.53
2023-02-19T03:24:38.806Z,100558.56
2023-02-19T03:28:13.934Z,100556.16
2023-02-19T03:31:57.642Z,100554.81
2023-02-19T03:35:56.149Z,100551.12
2023-02-19T03:39:22.151Z,100552.81
2023-02-19T03:43:02.259Z,100546.56
2023-02-19T03:47:03.628Z,100541.75
2023-02-19T03:50:51.403Z,100554.47
2023-02-19T03:54:35.974Z,100561.25
2023-02-19T03:58:29.649Z,100571.16
2023-02-19T04:01:37.596Z,100547.47
2023-02-19T04:04:50.664Z,100553.88
2023-02-19T04:08:00.536Z,100556.28
2023-02-19T04:11:06.850Z,100540.97
2023-02-19T04:14:22.307Z,100550.81
2023-02-19T04:17:34.378Z,100546.34
2023-02-19T04:20:46.548Z,100560.09
2023-02-19T04:23:50.440Z,100551.38
2023-02-19T04:26:54.558Z,100550.69
2023-02-19T04:29:57.905Z,100549.91
2023-02-19T04:33:02.848Z,100541.47
2023-02-19T04:36:07.733Z,100549.47
2023-02-19T04:39:10.242Z,100557.88
2023-02-19T04:42:16.494Z,100559.69
2023-02-19T04:45:21.628Z,100561.28
2023-02-19T04:48:26.978Z,100567.19
2023-02-19T04:51:29.536Z,100557.50
2023-02-19T04:54:34.756Z,100560.16
2023-02-19T04:57:39.440Z,100565.78
2023-02-19T05:00:44.815Z,100560.28
2023-02-19T05:03:49.645Z,100566.47
2023-02-19T05:06:55.377Z,100568.94
2023-02-19T05:10:00.228Z,100572.28
2023-02-19T05:13:03.506Z,100567.78
2023-02-19T05:16:13.969Z,100569.25
2023-02-19T05:19:20.721Z,100570.28
2023-02-19T05:22:23.282Z,100571.78
2023-02-19T05:25:28.890Z,100567.72
2023-02-19T05:28:33.611Z,100569.84
2023-02-19T05:31:43.064Z,100569.09
2023-02-19T05:34:48.124Z,100568.59
2023-02-19T05:37:53.569Z,100567.91
2023-02-19T05:40:56.361Z,100561.19
2023-02-19T05:44:02.067Z,100557.19
2023-02-19T05:47:04.704Z,100552.84
2023-02-19T05:50:10.858Z,100556.31
2023-02-19T05:53:14.372Z,100565.44
2023-02-19T05:56:26.254Z,100569.22
2023-02-19T05:59:29.518Z,100571.72
2023-02-19T06:02:34.645Z,100568.87
2023-02-19T06:05:38.510Z,100575.50
2023-02-19T06:08:43.591Z,100590.84
2023-02-19T06:11:49.464Z,100580.19
2023-02-19T06:14:52.347Z,100585.81
2023-02-19T06:17:55.468Z,100581.34
2023-02-19T06:21:02.907Z,100579.94
2023-02-19T06:24:09.041Z,100581.00
2023-02-19T06:27:11.740Z,100578.78
2023-02-19T06:30:14.697Z,100567.88
2023-02-19T06:33:17.246Z,100568.87
2023-02-19T06:36:22.014Z,100575.97
2023-02-19T06:39:25.708Z,100570.91
2023-02-19T06:42:35.132Z,100567.62
2023-02-19T06:45:37.989Z,100568.34
2023-02-19T06:49:01.629Z,100565.66
2023-02-19T06:52:04.330Z,100559.22
2023-02-19T06:55:12.242Z,100562.66
2023-02-19T06:58:14.886Z,100564.88
2023-02-19T07:01:20.571Z,100569.88
2023-02-19T07:04:24.593Z,100573.34
2023-02-19T07:07:29.792Z,100566.84
2023-02-19T07:10:34.602Z,100571.56
2023-02-19T07:13:40.446Z,100568.41
2023-02-19T07:16:47.739Z,100572.37
2023-02-19T07:19:54.184Z,100584.75
2023-02-19T07:22:59.706Z,100578.78
2023-02-19T07:26:26.284Z,100580.41
2023-02-19T07:29:31.186Z,100583.94
2023-02-19T07:32:34.231Z,100589.59
2023-02-19T07:35:36.755Z,100571.59
2023-02-19T07:38:42.751Z,100555.56
2023-02-19T07:41:45.304Z,100556.59
2023-02-19T07:44:52.868Z,100554.41
2023-02-19T07:47:57.764Z,100557.28
2023-02-19T07:51:01.129Z,100552.56
2023-02-19T07:54:05.982Z,100551.22
2023-02-19T07:57:11.711Z,100553.56
2023-02-19T08:00:14.558Z,100563.41
2023-02-19T08:03:20.269Z,100568.66
2023-02-19T08:06:23.239Z,100567.62
2023-02-19T08:09:28.487Z,100574.72
2023-02-19T08:12:58.651Z,100582.38
2023-02-19T08:16:17.020Z,100588.72
2023-02-19T08:19:23.312Z,100596.25
2023-02-19T08:22:26.716Z,100590.53
2023-02-19T08:25:30.031Z,100591.09
2023-02-19T08:28:33.890Z,100597.88
2023-02-19T08:31:37.446Z,100600.59
2023-02-19T08:34:41.490Z,100605.75
2023-02-19T08:37:48.059Z,100592.44
2023-02-19T08:40:50.952Z,100593.59
2023-02-19T08:43:53.916Z,100587.62
2023-02-19T08:47:02.473Z,100579.72
2023-02-19T08:50:08.778Z,100581.25
2023-02-19T08:53:11.675Z,100569.09
2023-02-19T08:56:16.615Z,100583.88
2023-02-19T08:59:20.853Z,100581.00
2023-02-19T09:02:24.723Z,100572.97
2023-02-19T09:05:28.370Z,100576.53
2023-02-19T09:08:33.593Z,100571.50
2023-02-19T09:11:41.225Z,100573.66
2023-02-19T09:14:45.032Z,100575.03
2023-02-19T09:17:57.061Z,100565.66
2023-02-19T09:21:01.812Z,100566.09
2023-02-19T09:24:08.385Z,100561.63
2023-02-19T09:27:19.813Z,100552.81
2023-02-19T09:30:24.769Z,100568.03
2023-02-19T09:33:27.822Z,100562.66
2023-02-19T09:36:35.580Z,100564.25
2023-02-19T09:39:38.986Z,100556.13
2023-02-19T09:42:43.366Z,100555.69
2023-02-19T09:45:51.659Z,100552.94
2023-02-19T09:49:02.501Z,100544.66
2023-02-19T09:52:15.523Z,100541.91
2023-02-19T09:55:32.650Z,100547.09
2023-02-19T09:58:49.737Z,100547.91
2023-02-19T10:02:02.943Z,100545.37
2023-02-19T10:05:19.460Z,100539.88
2023-02-19T10:08:25.433Z,100536.34
2023-02-19T10:11:33.706Z,100526.66
2023-02-19T10:14:42.042Z,100519.91
2023-02-19T10:17:45.102Z,100517.94
2023-02-19T10:20:50.897Z,100504.75
2023-02-19T10:24:03.293Z,100494.16
2023-02-19T10:27:19.238Z,100488.47
2023-02-19T10:30:25.705Z,100485.72
2023-02-19T10:33:31.527Z,100494.97
2023-02-19T10:36:41.151Z,100490.84
2023-02-19T10:39:49.458Z,100479.38
2023-02-19T10:42:56.789Z,100480.78
2023-02-19T10:46:06.554Z,100466.94
2023-02-19T10:49:30.974Z,100458.84
2023-02-19T10:52:36.689Z,100459.28
2023-02-19T10:55:41.461Z,100447.53
2023-02-19T10:58:47.361Z,100436.00
2023-02-19T11:02:18.609Z,100435.78
2023-02-19T11:05:21.722Z,100428.94
2023-02-19T11:08:25.229Z,100417.38
2023-02-19T11:11:37.512Z,100405.19
2023-02-19T11:14:46.103Z,100395.41
2023-02-19T11:18:00.219Z,100386.03
2023-02-19T11:21:07.518Z,100368.06
2023-02-19T11:24:28.898Z,100367.62
2023-02-19T11:27:35.684Z,100379.59
2023-02-19T11:30:44.105Z,100363.63
2023-02-19T11:34:02.610Z,100343.81
2023-02-19T11:37:22.326Z,100332.63
2023-02-19T11:40:40.114Z,100323.53
2023-02-19T11:43:53.108Z,100316.62
2023-02-19T11:46:56.033Z,100324.09
2023-02-19T11:50:22.503Z,100309.81
2023-02-19T11:53:33.738Z,100321.81
2023-02-19T11:56:40.867Z,100326.84
2023-02-19T11:59:56.524Z,100331.81
2023-02-19T12:03:05.062Z,100311.91
2023-02-19T12:06:30.037Z,100330.22
2023-02-19T12:10:24.035Z,100316.59
2023-02-19T12:14:22.391Z,100304.09
2023-02-19T12:18:08.294Z,100289.97
2023-02-19T12:22:25.579Z,100301.09
2023-02-19T12:26:22.144Z,100308.88
2023-02-19T12:29:35.784Z,100282.47
2023-02-19T12:33:14.168Z,100278.81
2023-02-19T12:37:21.117Z,100284.66
2023-02-19T12:41:22.814Z,100279.50
2023-02-19T12:45:16.215Z,100293.41
2023-02-19T12:49:01.263Z,100298.72
2023-02-19T12:52:40.508Z,100312.75
2023-02-19T12:56:47.153Z,100308.69
2023-02-19T13:00:31.197Z,100336.28
2023-02-19T13:04:11.774Z,100325.28
2023-02-19T13:07:40.926Z,100321.16
2023-02-19T13:11:42.600Z,100317.28
2023-02-19T13:15:52.034Z,100319.09
2023-02-19T13:20:27.741Z,100297.03
2023-02-19T13:24:36.028Z,100295.75
2023-02-19T13:28:21.445Z,100295.22
2023-02-19T13:31:57.514Z,100290.97
2023-02-19T13:35:28.591Z,100294.63
2023-02-19T13:42:41.334Z,100306.13
2023-02-19T13:46:13.770Z,100294.66
2023-02-19T13:50:06.659Z,100314.87
2023-02-19T13:54:03.250Z,100303.84
2023-02-19T13:57:47.126Z,100321.81
2023-02-19T14:01:49.960Z,100362.28
2023-02-19T14:05:51.641Z,100368.59
2023-02-19T14:09:36.144Z,100369.88
2023-02-19T14:12:56.569Z,100393.22
2023-02-19T14:16:43.025Z,100408.09
2023-02-19T14:21:17.900Z,100460.75
2023-02-19T14:24:54.853Z,100447.03
2023-02-19T14:28:46.129Z,100455.50
2023-02-19T14:32:31.769Z,100438.34
2023-02-19T14:36:34.047Z,100456.09
2023-02-19T14:40:28.041Z,100461.50
2023-02-19T14:44:20.621Z,100474.41
2023-02-19T14:47:45.892Z,100480.78
2023-02-19T14:51:14.718Z,100490.72
2023-02-19T14:59:20.045Z,100502.19
2023-02-19T15:03:33.988Z,100495.13
2023-02-19T15:07:27.884Z,100482.72
2023-02-19T15:15:17.721Z,100483.81
2023-02-19T15:19:10.393Z,100509.16
2023-02-19T15:22:33.642Z,100508.19
2023-02-19T15:26:22.781Z,100519.91
2023-02-19T15:29:53.892Z,100516.94
2023-02-19T15:33:59.317Z,100515.56
2023-02-19T15:37:41.276Z,100513.75
2023-02-19T15:41:25.156Z,100501.81
2023-02-19T15:45:07.722Z,100499.00
2023-02-19T15:49:09.542Z,100483.78
2023-02-19T15:57:17.202Z,100475.66
2023-02-19T16:01:01.982Z,100490.50
2023-02-19T16:05:12.492Z,100488.34
2023-02-19T16:08:41.200Z,100500.28
2023-02-19T16:12:24.996Z,100516.91
2023-02-19T16:16:18.848Z,100514.84
2023-02-19T16:19:43.352Z,100525.63
2023-02-19T16:23:30.794Z,100531.66
2023-02-19T16:26:56.211Z,100544.16
2023-02-19T16:30:26.834Z,100537.31
2023-02-19T16:34:18.710Z,100543.22
2023-02-19T16:38:00.274Z,100558.03
2023-02-19T16:41:15.011Z,100547.16
2023-02-19T16:44:27.929Z,100536.19
2023-02-19T16:47:41.671Z,100560.47
2023-02-19T16:51:26.184Z,100594.53
2023-02-19T16:54:59.879Z,100584.12
2023-02-19T16:58:20.410Z,100576.47
2023-02-19T17:02:15.129Z,100563.41
2023-02-19T17:05:40.993Z,100562.56
2023-02-19T17:09:16.548Z,100578.59
2023-02-19T17:13:07.177Z,100572.19
2023-02-19T17:16:39.929Z,100576.41
2023-02-19T17:19:46.982Z,100575.28
2023-02-19T17:23:13.204Z,100591.09
2023-02-19T17:26:56.134Z,100597.06
2023-02-19T17:30:39.844Z,100592.22
2023-02-19T17:34:07.794Z,100586.25
2023-02-19T17:37:47.605Z,100599.56
2023-02-19T17:41:51.532Z,100614.09
2023-02-19T17:45:34.707Z,100617.84
2023-02-19T17:49:42.210Z,100609.47
2023-02-19T17:53:20.329Z,100627.72
2023-02-19T17:57:02.409Z,100640.31
2023-02-19T18:00:32.576Z,100651.56
2023-02-19T18:04:16.717Z,100654.28
2023-02-19T18:07:40.592Z,100669.44
2023-02-19T18:11:49.818Z,100658.59
2023-02-19T18:15:32.971Z,100663.50
2023-02-19T18:19:19.288Z,100642.31
2023-02-19T18:23:03.928Z,100676.09
2023-02-19T18:26:34.877Z,100681.44
2023-02-19T18:30:23.094Z,100692.16
2023-02-19T18:34:07.256Z,100709.31
2023-02-19T18:37:40.644Z,100718.25
2023-02-19T18:41:19.956Z,100722.84
2023-02-19T18:44:41.863Z,100735.66
2023-02-19T18:48:06.854Z,100739.00
2023-02-19T18:52:01.446Z,100743.31
2023-02-19T18:55:24.121Z,100756.78
2023-02-19T18:58:50.514Z,100758.78
2023-02-19T19:02:27.137Z,100767.78
2023-02-19T19:05:39.676Z,100760.94
2023-02-19T19:09:22.611Z,100784.94
2023-02-19T19:12:50.526Z,100776.22
2023-02-19T19:16:33.325Z,100785.81
2023-02-19T19:20:13.895Z,100778.97
2023-02-19T19:23:47.104Z,100770.78
2023-02-19T19:27:21.564Z,100757.59
2023-02-19T19:31:17.156Z,100744.94
2023-02-19T19:35:02.708Z,100742.53
2023-02-19T19:38:41.696Z,100755.09
2023-02-19T19:42:26.058Z,100749.78
2023-02-19T19:45:57.988Z,100754.66
2023-02-19T19:49:41.288Z,100753.78
2023-02-19T19:53:05.448Z,100768.13
2023-02-19T19:56:28.261Z,100779.72
2023-02-19T19:59:53.538Z,100798.94
2023-02-19T20:03:53.625Z,100802.03
2023-02-19T20:12:02.113Z,100808.94
2023-02-19T20:15:33.210Z,100850.72
2023-02-19T20:19:36.221Z,100869.41
2023-02-19T20:22:59.579Z,100884.75
2023-02-19T20:26:26.040Z,100901.97
2023-02-19T20:30:04.238Z,100911.44
2023-02-19T20:33:27.808Z,100919.97
2023-02-19T20:36:55.039Z,100925.84
2023-02-19T20:40:19.586Z,100932.28
2023-02-19T20:43:28.654Z,100937.19
2023-02-19T20:47:01.033Z,100952.37
2023-02-19T20:50:25.735Z,100952.34
2023-02-19T20:53:53.689Z,100960.09
2023-02-19T20:57:18.204Z,100960.91
2023-02-19T21:00:42.184Z,100961.16
2023-02-19T21:04:14.190Z,100964.97
2023-02-19T21:08:17.661Z,100967.03
2023-02-19T21:12:00.459Z,100955.53
2023-02-19T21:15:26.459Z,100952.72
2023-02-19T21:18:53.841Z,100966.50
2023-02-19T21:21:59.866Z,100953.97
2023-02-19T21:25:07.740Z,100967.38
2023-02-19T21:28:52.058Z,100969.81
2023-02-19T21:32:17.169Z,100977.16
2023-02-19T21:36:21.182Z,100963.19
2023-02-19T21:39:28.620Z,100960.78
2023-02-19T21:42:53.023Z,100958.34
2023-02-19T21:46:00.540Z,100955.91
2023-02-19T21:49:44.681Z,100954.31
2023-02-19T21:52:53.848Z,100955.13
2023-02-19T21:56:22.839Z,100982.56
2023-02-19T21:59:54.492Z,100968.03
2023-02-19T22:03:27.332Z,100966.78
2023-02-19T22:06:35.400Z,100979.47
2023-02-19T22:10:05.880Z,100984.53
2023-02-19T22:13:57.807Z,100993.78
2023-02-19T22:17:04.741Z,101005.91
2023-02-19T22:20:08.469Z,101018.56
2023-02-19T22:23:13.375Z,101012.31
2023-02-19T22:26:23.161Z,101046.41
2023-02-19T22:29:27.887Z,101058.06
2023-02-19T22:32:51.639Z,101064.13
2023-02-19T22:35:54.372Z,101065.88
2023-02-19T22:39:01.810Z,101081.56
2023-02-19T22:42:07.249Z,101098.06
2023-02-19T22:45:13.836Z,101094.00
2023-02-19T22:48:30.200Z,101118.37
2023-02-19T22:52:14.746Z,101107.41
2023-02-19T22:55:57.916Z,101119.25
2023-02-19T22:59:04.554Z,101127.38
2023-02-19T23:02:27.136Z,101117.28
2023-02-19T23:05:34.856Z,101135.37
2023-02-19T23:08:37.834Z,101139.63
2023-02-19T23:12:10.597Z,101136.19
2023-02-19T23:15:35.661Z,101145.87
2023-02-19T23:18:39.170Z,101159.47
2023-02-19T23:21:44.480Z,101157.78
2023-02-19T23:24:52.696Z,101158.22
2023-02-19T23:27:58.577Z,101167.97
2023-02-19T23:31:07.014Z,101174.44
2023-02-19T23:34:12.757Z,101167.22
2023-02-19T23:37:17.953Z,101167.22
2023-02-19T23:40:21.246Z,101187.72
2023-02-19T23:43:25.426Z,101172.81
2023-02-19T23:46:34.664Z,101184.50
2023-02-19T23:49:41.130Z,101171.31
2023-02-19T23:52:47.324Z,101178.19
2023-02-19T23:55:52.163Z,101189.41
2023-02-19T23:58:57.790Z,101188.81
